createdAt,value
2022-08-10T00:01:51.936Z,42.30
2022-08-10T00:04:22.317Z,42.29
2022-08-10T00:06:54.513Z,42.35
2022-08-10T00:09:24.062Z,42.39
2022-08-10T00:11:52.982Z,42.48
2022-08-10T00:14:21.671Z,42.59
2022-08-10T00:16:50.191Z,42.44
2022-08-10T00:19:20.806Z,42.51
2022-08-10T00:21:52.822Z,42.41
2022-08-10T00:24:21.409Z,42.45
2022-08-10T00:27:52.855Z,42.56
2022-08-10T00:29:38.421Z,42.75
2022-08-10T00:32:07.635Z,42.96
2022-08-10T00:34:36.293Z,43.00
2022-08-10T00:37:06.473Z,43.18
2022-08-10T00:39:36.478Z,43.19
2022-08-10T00:42:08.857Z,43.15
2022-08-10T00:44:39.670Z,42.90
2022-08-10T00:47:35.907Z,43.17
2022-08-10T00:49:57.949Z,43.28
2022-08-10T00:52:29.310Z,43.50
2022-08-10T00:54:58.012Z,43.51
2022-08-10T00:57:27.431Z,43.45
2022-08-10T00:59:57.813Z,43.35
2022-08-10T01:02:29.083Z,43.55
2022-08-10T01:05:01.942Z,43.77
2022-08-10T01:08:10.565Z,43.87
2022-08-10T01:10:53.657Z,43.73
2022-08-10T01:13:27.986Z,43.83
2022-08-10T01:16:05.909Z,44.02
2022-08-10T01:18:50.253Z,44.11
2022-08-10T01:21:48.040Z,44.33
2022-08-10T01:25:00.541Z,44.39
2022-08-10T01:27:38.003Z,44.27
2022-08-10T01:30:10.399Z,44.24
2022-08-10T01:32:49.826Z,44.49
2022-08-10T01:35:27.807Z,44.46
2022-08-10T01:38:05.051Z,44.57
2022-08-10T01:40:37.694Z,44.58
2022-08-10T01:43:09.952Z,44.59
2022-08-10T01:45:46.007Z,44.59
2022-08-10T01:48:30.877Z,44.70
2022-08-10T01:51:12.876Z,44.88
2022-08-10T01:53:47.437Z,44.75
2022-08-10T01:56:18.445Z,45.04
2022-08-10T01:58:50.429Z,44.88
2022-08-10T02:01:24.555Z,44.92
2022-08-10T02:04:03.127Z,45.00
2022-08-10T02:06:37.786Z,45.17
2022-08-10T02:09:08.687Z,45.10
2022-08-10T02:12:05.389Z,45.11
2022-08-10T02:14:32.895Z,45.07
2022-08-10T02:17:05.249Z,45.12
2022-08-10T02:19:36.894Z,45.19
2022-08-10T02:22:35.403Z,45.19
2022-08-10T02:24:59.243Z,45.24
2022-08-10T02:27:30.704Z,45.34
2022-08-10T02:30:00.424Z,45.36
2022-08-10T02:32:37.838Z,45.32
2022-08-10T02:35:20.127Z,45.39
2022-08-10T02:37:52.035Z,45.81
2022-08-10T02:42:18.623Z,45.37
2022-08-10T02:45:17.813Z,45.71
2022-08-10T02:46:13.925Z,45.79
2022-08-10T02:48:53.113Z,45.86
2022-08-10T02:52:07.888Z,45.97
2022-08-10T02:54:21.857Z,46.17
2022-08-10T02:56:56.779Z,46.25
2022-08-10T02:59:40.380Z,46.12
2022-08-10T03:02:13.600Z,46.24
2022-08-10T03:04:56.133Z,46.44
2022-08-10T03:07:44.142Z,46.39
2022-08-10T03:10:17.960Z,46.59
2022-08-10T03:12:51.039Z,46.60
2022-08-10T03:15:22.272Z,46.68
2022-08-10T03:17:57.579Z,46.60
2022-08-10T03:20:36.908Z,46.65
2022-08-10T03:23:14.094Z,46.66
2022-08-10T03:25:54.379Z,46.76
2022-08-10T03:28:24.979Z,46.89
2022-08-10T03:30:54.241Z,46.94
2022-08-10T03:33:24.004Z,47.01
2022-08-10T03:36:42.493Z,47.10
2022-08-10T03:38:44.672Z,47.17
2022-08-10T03:41:16.368Z,47.25
2022-08-10T03:43:48.356Z,47.36
2022-08-10T03:46:20.657Z,47.44
2022-08-10T03:48:53.585Z,47.41
2022-08-10T03:51:24.823Z,47.35
2022-08-10T03:54:05.930Z,47.22
2022-08-10T03:56:37.766Z,47.40
2022-08-10T03:59:08.565Z,47.39
2022-08-10T04:02:44.143Z,47.42
2022-08-10T04:04:26.756Z,47.57
2022-08-10T04:06:58.641Z,47.56
2022-08-10T04:09:43.458Z,47.72
2022-08-10T04:12:17.693Z,48.02
2022-08-10T04:14:51.365Z,48.09
2022-08-10T04:18:03.061Z,48.24
2022-08-10T04:20:19.635Z,48.27
2022-08-10T04:22:54.082Z,48.35
2022-08-10T04:25:26.085Z,48.13
2022-08-10T04:27:55.809Z,48.24
2022-08-10T04:30:27.770Z,48.31
2022-08-10T04:32:59.148Z,48.27
2022-08-10T04:35:29.480Z,48.36
2022-08-10T04:38:01.981Z,48.53
2022-08-10T04:40:31.488Z,48.55
2022-08-10T04:43:07.375Z,48.64
2022-08-10T04:45:50.567Z,48.68
2022-08-10T04:48:43.455Z,48.58
2022-08-10T04:51:17.032Z,48.75
2022-08-10T04:54:03.308Z,48.89
2022-08-10T04:56:37.006Z,49.00
2022-08-10T04:59:06.638Z,49.07
2022-08-10T05:02:21.153Z,48.95
2022-08-10T05:04:38.580Z,48.70
2022-08-10T05:07:16.515Z,48.89
2022-08-10T05:10:03.972Z,49.12
2022-08-10T05:12:37.397Z,49.15
2022-08-10T05:15:09.236Z,49.23
2022-08-10T05:17:38.617Z,49.24
2022-08-10T05:20:09.022Z,49.21
2022-08-10T05:22:38.754Z,49.27
2022-08-10T05:25:11.099Z,49.65
2022-08-10T05:27:39.941Z,49.37
2022-08-10T05:30:11.092Z,49.30
2022-08-10T05:32:58.203Z,49.34
2022-08-10T05:35:52.409Z,49.12
2022-08-10T05:38:21.926Z,48.85
2022-08-10T05:40:53.023Z,48.69
2022-08-10T05:43:24.245Z,48.42
2022-08-10T05:46:18.019Z,48.19
2022-08-10T05:48:59.668Z,48.15
2022-08-10T05:51:30.020Z,48.02
2022-08-10T05:54:04.836Z,48.05
2022-08-10T05:56:57.207Z,47.93
2022-08-10T06:00:10.870Z,47.89
2022-08-10T06:02:31.784Z,47.70
2022-08-10T06:05:07.938Z,47.43
2022-08-10T06:07:40.300Z,47.37
2022-08-10T06:10:12.550Z,47.03
2022-08-10T06:12:53.940Z,46.90
2022-08-10T06:15:51.425Z,46.74
2022-08-10T06:18:15.831Z,46.78
2022-08-10T06:20:44.973Z,46.58
2022-08-10T06:23:14.366Z,46.39
2022-08-10T06:26:11.181Z,46.26
2022-08-10T06:28:39.124Z,46.00
2022-08-10T06:31:09.399Z,45.92
2022-08-10T06:33:40.754Z,45.90
2022-08-10T06:36:10.434Z,45.61
2022-08-10T06:38:41.074Z,45.70
2022-08-10T06:41:19.992Z,45.41
2022-08-10T06:43:58.874Z,45.17
2022-08-10T06:46:29.585Z,45.21
2022-08-10T06:49:01.489Z,45.18
2022-08-10T06:51:34.313Z,45.16
2022-08-10T06:54:05.927Z,45.22
2022-08-10T06:56:50.862Z,45.20
2022-08-10T06:59:38.555Z,44.78
2022-08-10T07:02:09.655Z,45.00
2022-08-10T07:04:44.509Z,44.71
2022-08-10T07:07:18.672Z,44.74
2022-08-10T07:09:49.158Z,44.80
2022-08-10T07:12:21.436Z,44.82
2022-08-10T07:14:53.847Z,44.38
2022-08-10T07:17:26.755Z,44.29
2022-08-10T07:19:58.389Z,43.95
2022-08-10T07:23:01.206Z,44.02
2022-08-10T07:25:22.613Z,43.83
2022-08-10T07:28:00.511Z,43.61
2022-08-10T07:30:32.805Z,43.61
2022-08-10T07:33:03.673Z,43.68
2022-08-10T07:35:41.572Z,43.57
2022-08-10T07:38:19.297Z,43.47
2022-08-10T07:40:50.157Z,43.01
2022-08-10T07:43:22.014Z,42.82
2022-08-10T07:45:54.194Z,42.87
2022-08-10T07:48:28.377Z,42.81
2022-08-10T07:51:02.082Z,42.57
2022-08-10T07:53:35.429Z,42.58
2022-08-10T07:56:20.874Z,42.45
2022-08-10T07:58:59.530Z,41.81
2022-08-10T08:01:34.245Z,42.08
2022-08-10T08:04:06.190Z,41.87
2022-08-10T08:06:41.735Z,41.85
2022-08-10T08:09:12.266Z,41.80
2022-08-10T08:11:42.959Z,41.63
2022-08-10T08:14:12.516Z,41.19
2022-08-10T08:16:47.200Z,41.06
2022-08-10T08:19:37.745Z,41.18
2022-08-10T08:24:09.125Z,40.94
2022-08-10T08:24:59.033Z,40.21
2022-08-10T08:27:30.272Z,40.23
2022-08-10T08:29:59.972Z,40.09
2022-08-10T08:32:32.786Z,40.06
2022-08-10T08:35:05.909Z,40.10
2022-08-10T08:38:31.643Z,39.96
2022-08-10T08:40:27.023Z,39.85
2022-08-10T08:43:27.304Z,39.47
2022-08-10T08:46:34.122Z,39.35
2022-08-10T08:50:04.577Z,39.64
2022-08-10T08:52:19.030Z,39.53
2022-08-10T08:55:05.140Z,38.98
2022-08-10T08:58:05.524Z,38.72
2022-08-10T09:00:42.972Z,38.79
2022-08-10T09:03:35.710Z,38.21
2022-08-10T09:06:18.380Z,38.40
2022-08-10T09:09:15.828Z,38.51
2022-08-10T09:12:06.165Z,37.91
2022-08-10T09:14:42.798Z,37.78
2022-08-10T09:17:19.714Z,37.69
2022-08-10T09:19:55.397Z,37.91
2022-08-10T09:22:32.941Z,38.17
2022-08-10T09:25:11.863Z,38.04
2022-08-10T09:27:49.681Z,37.73
2022-08-10T09:30:29.588Z,38.01
2022-08-10T09:36:24.977Z,36.21
2022-08-10T09:36:26.379Z,36.69
2022-08-10T09:39:04.590Z,36.75
2022-08-10T09:41:40.953Z,37.03
2022-08-10T09:44:22.527Z,36.54
2022-08-10T09:47:13.380Z,36.18
2022-08-10T09:49:57.820Z,36.54
2022-08-10T09:52:42.757Z,36.01
2022-08-10T09:55:24.157Z,35.64
2022-08-10T09:58:28.880Z,35.59
2022-08-10T10:01:08.795Z,35.32
2022-08-10T10:04:08.287Z,34.87
2022-08-10T10:06:45.533Z,35.04
2022-08-10T10:09:26.894Z,35.17
2022-08-10T10:12:10.982Z,35.15
2022-08-10T10:15:10.172Z,34.77
2022-08-10T10:18:15.360Z,34.92
2022-08-10T10:20:51.389Z,34.89
2022-08-10T10:23:31.169Z,34.71
2022-08-10T10:26:15.908Z,34.17
2022-08-10T10:31:58.325Z,34.06
2022-08-10T10:34:37.018Z,33.75
2022-08-10T10:37:08.934Z,33.54
2022-08-10T10:39:42.018Z,33.73
2022-08-10T10:42:44.348Z,33.56
2022-08-10T10:45:21.007Z,33.74
2022-08-10T10:48:04.120Z,33.60
2022-08-10T10:50:40.449Z,33.60
2022-08-10T10:53:19.362Z,33.57
2022-08-10T10:56:15.371Z,33.70
2022-08-10T10:58:48.417Z,33.73
2022-08-10T11:01:27.505Z,33.14
2022-08-10T11:04:20.191Z,32.72
2022-08-10T11:06:58.792Z,32.39
2022-08-10T11:10:01.209Z,32.47
2022-08-10T11:12:39.903Z,32.35
2022-08-10T11:15:21.883Z,32.34
2022-08-10T11:17:58.003Z,32.35
2022-08-10T11:20:33.367Z,31.91
2022-08-10T11:23:19.488Z,31.54
2022-08-10T11:25:59.619Z,31.39
2022-08-10T11:28:37.157Z,31.41
2022-08-10T11:31:13.981Z,31.59
2022-08-10T11:36:49.258Z,31.42
2022-08-10T11:39:23.374Z,31.05
2022-08-10T11:42:09.352Z,31.20
2022-08-10T11:44:48.730Z,30.61
2022-08-10T11:47:20.270Z,30.36
2022-08-10T11:49:55.349Z,29.86
2022-08-10T11:52:35.090Z,29.82
2022-08-10T11:55:12.318Z,29.53
2022-08-10T11:57:54.458Z,29.64
2022-08-10T12:00:24.151Z,29.61
2022-08-10T12:02:58.780Z,29.75
2022-08-10T12:05:51.533Z,28.77
2022-08-10T12:10:05.465Z,28.61
2022-08-10T12:11:23.945Z,28.22
2022-08-10T12:14:20.704Z,28.18
2022-08-10T12:16:52.886Z,28.45
2022-08-10T12:19:29.082Z,28.49
2022-08-10T12:22:06.914Z,27.90
2022-08-10T12:24:39.539Z,27.56
2022-08-10T12:27:13.488Z,27.56
2022-08-10T12:29:47.713Z,27.17
2022-08-10T12:32:25.670Z,27.38
2022-08-10T12:35:01.781Z,26.88
2022-08-10T12:37:44.877Z,26.51
2022-08-10T12:40:35.205Z,26.58
2022-08-10T12:44:03.772Z,26.21
2022-08-10T12:46:06.861Z,25.92
2022-08-10T12:48:40.872Z,26.17
2022-08-10T12:51:16.241Z,26.17
2022-08-10T12:53:51.900Z,25.63
2022-08-10T12:56:27.467Z,25.25
2022-08-10T12:59:01.142Z,25.28
2022-08-10T13:02:06.287Z,25.13
2022-08-10T13:04:29.854Z,24.96
2022-08-10T13:07:02.024Z,25.03
2022-08-10T13:09:32.889Z,24.86
2022-08-10T13:12:37.045Z,24.61
2022-08-10T13:14:59.611Z,24.90
2022-08-10T13:17:39.747Z,25.24
2022-08-10T13:20:17.680Z,25.13
2022-08-10T13:22:50.308Z,24.93
2022-08-10T13:25:31.378Z,24.68
2022-08-10T13:28:36.200Z,25.08
2022-08-10T13:30:52.568Z,25.17
2022-08-10T13:34:41.471Z,25.37
2022-08-10T13:36:23.943Z,25.99
2022-08-10T13:38:56.469Z,25.71
2022-08-10T13:41:29.971Z,26.01
2022-08-10T13:44:00.897Z,25.75
2022-08-10T13:46:29.681Z,25.94
2022-08-10T13:49:01.294Z,26.00
2022-08-10T13:51:57.051Z,25.83
2022-08-10T13:54:26.537Z,25.90
2022-08-10T13:56:58.255Z,25.52
2022-08-10T14:00:35.372Z,25.15
2022-08-10T14:02:26.457Z,25.50
2022-08-10T14:04:59.493Z,25.12
2022-08-10T14:07:29.156Z,25.01
2022-08-10T14:10:07.407Z,25.08
2022-08-10T14:12:40.659Z,24.81
2022-08-10T14:15:14.974Z,25.30
2022-08-10T14:17:46.881Z,25.11
2022-08-10T14:20:21.369Z,24.79
2022-08-10T14:22:50.749Z,24.78
2022-08-10T14:25:19.651Z,25.25
2022-08-10T14:28:01.894Z,25.02
2022-08-10T14:30:32.749Z,25.09
2022-08-10T14:33:04.934Z,24.96
2022-08-10T14:36:20.489Z,24.35
2022-08-10T14:38:30.432Z,24.50
2022-08-10T14:41:02.046Z,24.33
2022-08-10T14:43:37.309Z,24.27
2022-08-10T14:46:08.667Z,24.15
2022-08-10T14:48:42.489Z,24.26
2022-08-10T14:51:16.227Z,24.10
2022-08-10T14:53:46.425Z,24.20
2022-08-10T14:56:18.428Z,24.21
2022-08-10T14:59:05.631Z,24.21
2022-08-10T15:02:00.240Z,24.33
2022-08-10T15:04:28.963Z,24.62
2022-08-10T15:07:02.577Z,24.94
2022-08-10T15:10:00.047Z,24.90
2022-08-10T15:12:35.078Z,24.56
2022-08-10T15:15:07.606Z,24.63
2022-08-10T15:17:39.815Z,24.76
2022-08-10T15:20:16.120Z,24.65
2022-08-10T15:22:52.342Z,24.46
2022-08-10T15:25:25.463Z,24.39
2022-08-10T15:27:56.670Z,24.32
2022-08-10T15:30:31.842Z,24.30
2022-08-10T15:33:21.529Z,24.06
2022-08-10T15:36:28.489Z,23.94
2022-08-10T15:39:01.719Z,23.76
2022-08-10T15:41:58.389Z,23.50
2022-08-10T15:44:41.016Z,23.70
2022-08-10T15:47:17.190Z,23.81
2022-08-10T15:49:54.410Z,23.23
2022-08-10T15:52:39.491Z,23.48
2022-08-10T15:55:43.682Z,23.82
2022-08-10T15:58:14.526Z,24.01
2022-08-10T16:00:52.022Z,24.27
2022-08-10T16:03:31.858Z,24.20
2022-08-10T16:06:03.836Z,24.25
2022-08-10T16:08:56.703Z,24.06
2022-08-10T16:11:39.008Z,24.80
2022-08-10T16:14:12.926Z,24.69
2022-08-10T16:16:43.263Z,24.34
2022-08-10T16:19:23.814Z,24.65
2022-08-10T16:22:01.319Z,24.49
2022-08-10T16:24:34.674Z,24.87
2022-08-10T16:27:06.682Z,25.13
2022-08-10T16:29:55.626Z,24.56
2022-08-10T16:32:27.030Z,24.48
2022-08-10T16:34:59.931Z,24.70
2022-08-10T16:37:57.294Z,24.42
2022-08-10T16:40:26.045Z,24.68
2022-08-10T16:42:55.402Z,24.83
2022-08-10T16:45:32.374Z,24.93
2022-08-10T16:48:02.663Z,25.34
2022-08-10T16:50:37.019Z,25.22
2022-08-10T16:53:09.613Z,25.83
2022-08-10T16:55:48.123Z,25.68
2022-08-10T16:58:22.404Z,25.98
2022-08-10T17:00:52.887Z,25.77
2022-08-10T17:04:06.209Z,25.91
2022-08-10T17:06:25.537Z,26.21
2022-08-10T17:08:57.730Z,25.93
2022-08-10T17:11:31.956Z,26.36
2022-08-10T17:14:02.444Z,26.45
2022-08-10T17:16:36.901Z,26.25
2022-08-10T17:19:12.133Z,26.61
2022-08-10T17:21:51.841Z,27.01
2022-08-10T17:24:25.589Z,26.81
2022-08-10T17:26:57.525Z,27.09
2022-08-10T17:29:59.265Z,27.29
2022-08-10T17:32:26.042Z,27.20
2022-08-10T17:34:59.165Z,27.14
2022-08-10T17:37:35.006Z,27.13
2022-08-10T17:40:08.678Z,27.40
2022-08-10T17:42:40.076Z,27.72
2022-08-10T17:45:20.839Z,27.88
2022-08-10T17:48:09.530Z,27.84
2022-08-10T17:50:42.529Z,28.07
2022-08-10T17:53:16.420Z,28.49
2022-08-10T17:55:48.017Z,28.58
2022-08-10T17:58:19.999Z,28.10
2022-08-10T18:00:51.812Z,27.98
2022-08-10T18:03:25.935Z,28.23
2022-08-10T18:05:56.631Z,28.30
2022-08-10T18:08:30.377Z,28.71
2022-08-10T18:11:00.894Z,28.37
2022-08-10T18:13:56.178Z,28.62
2022-08-10T18:16:26.587Z,29.11
2022-08-10T18:19:00.641Z,28.97
2022-08-10T18:21:32.508Z,28.85
2022-08-10T18:24:09.942Z,28.86
2022-08-10T18:26:43.979Z,28.94
2022-08-10T18:29:18.870Z,29.21
2022-08-10T18:31:51.244Z,29.56
2022-08-10T18:34:22.214Z,29.65
2022-08-10T18:36:52.781Z,30.06
2022-08-10T18:39:27.923Z,30.14
2022-08-10T18:42:09.994Z,30.33
2022-08-10T18:44:44.694Z,30.42
2022-08-10T18:47:17.706Z,30.49
2022-08-10T18:50:00.392Z,31.21
2022-08-10T18:52:33.141Z,30.94
2022-08-10T18:55:14.133Z,31.09
2022-08-10T18:58:03.226Z,31.11
2022-08-10T19:00:42.668Z,31.00
2022-08-10T19:03:32.518Z,31.37
2022-08-10T19:06:17.729Z,31.31
2022-08-10T19:09:09.726Z,31.60
2022-08-10T19:12:30.692Z,31.81
2022-08-10T19:15:06.843Z,31.83
2022-08-10T19:18:04.372Z,31.82
2022-08-10T19:20:37.052Z,31.82
2022-08-10T19:23:19.640Z,32.05
2022-08-10T19:26:41.289Z,31.89
2022-08-10T19:28:58.564Z,32.15
2022-08-10T19:31:44.361Z,32.18
2022-08-10T19:34:35.875Z,32.45
2022-08-10T19:37:15.506Z,32.20
2022-08-10T19:40:04.269Z,32.67
2022-08-10T19:42:45.569Z,32.76
2022-08-10T19:46:02.065Z,32.78
2022-08-10T19:48:21.092Z,33.16
2022-08-10T19:50:56.737Z,33.05
2022-08-10T19:53:41.343Z,33.10
2022-08-10T19:56:34.186Z,33.26
2022-08-10T19:59:09.367Z,33.12
2022-08-10T20:01:54.511Z,33.40
2022-08-10T20:04:31.818Z,33.37
2022-08-10T20:07:13.061Z,33.47
2022-08-10T20:09:49.788Z,33.71
2022-08-10T20:12:26.905Z,33.96
2022-08-10T20:15:03.359Z,33.96
2022-08-10T20:17:52.224Z,33.87
2022-08-10T20:20:30.649Z,33.98
2022-08-10T20:23:09.297Z,34.48
2022-08-10T20:25:37.848Z,34.06
2022-08-10T20:28:15.221Z,34.33
2022-08-10T20:30:48.369Z,34.34
2022-08-10T20:33:24.744Z,34.49
2022-08-10T20:36:00.087Z,34.80
2022-08-10T20:38:35.929Z,35.09
2022-08-10T20:41:15.984Z,35.21
2022-08-10T20:43:54.613Z,34.84
2022-08-10T20:46:29.469Z,35.06
2022-08-10T20:49:06.168Z,35.26
2022-08-10T20:51:57.344Z,35.34
2022-08-10T20:54:32.972Z,35.58
2022-08-10T20:58:04.334Z,36.02
2022-08-10T21:00:14.196Z,35.92
2022-08-10T21:03:00.005Z,36.04
2022-08-10T21:05:54.314Z,36.03
2022-08-10T21:08:37.189Z,36.07
2022-08-10T21:11:13.321Z,36.51
2022-08-10T21:14:09.408Z,36.63
2022-08-10T21:16:59.762Z,36.69
2022-08-10T21:20:02.538Z,37.11
2022-08-10T21:22:39.717Z,37.18
2022-08-10T21:25:15.377Z,37.07
2022-08-10T21:28:13.550Z,37.42
2022-08-10T21:30:58.281Z,37.38
2022-08-10T21:33:34.800Z,37.31
2022-08-10T21:36:11.101Z,37.14
2022-08-10T21:38:49.282Z,37.46
2022-08-10T21:41:58.092Z,37.23
2022-08-10T21:45:04.099Z,37.40
2022-08-10T21:48:17.249Z,37.74
2022-08-10T21:51:14.840Z,37.78
2022-08-10T21:54:27.411Z,37.62
2022-08-10T21:57:24.546Z,37.96
2022-08-10T22:00:16.835Z,37.99
2022-08-10T22:03:03.970Z,38.37
2022-08-10T22:05:56.495Z,38.29
2022-08-10T22:08:50.344Z,38.46
2022-08-10T22:11:42.863Z,38.49
2022-08-10T22:14:33.961Z,38.29
2022-08-10T22:17:59.661Z,38.60
2022-08-10T22:20:33.129Z,38.81
2022-08-10T22:23:41.784Z,38.96
2022-08-10T22:26:36.866Z,38.89
2022-08-10T22:29:42.923Z,39.38
2022-08-10T22:32:38.260Z,39.17
2022-08-10T22:36:07.358Z,39.63
2022-08-10T22:39:09.165Z,39.58
2022-08-10T22:42:06.027Z,39.89
2022-08-10T22:44:57.800Z,39.50
2022-08-10T22:47:47.573Z,39.54
2022-08-10T22:50:21.193Z,39.75
2022-08-10T22:53:01.717Z,40.68
2022-08-10T22:55:53.660Z,39.84
2022-08-10T22:58:40.572Z,39.73
2022-08-10T23:01:36.184Z,39.83
2022-08-10T23:04:12.725Z,39.93
2022-08-10T23:06:52.057Z,40.09
2022-08-10T23:09:23.653Z,40.23
2022-08-10T23:11:58.144Z,40.29
2022-08-10T23:14:35.941Z,40.55
2022-08-10T23:18:00.917Z,40.47
2022-08-10T23:20:21.111Z,40.18
2022-08-10T23:22:54.185Z,40.41
2022-08-10T23:25:30.057Z,40.59
2022-08-10T23:28:09.072Z,40.58
2022-08-10T23:30:44.087Z,40.65
2022-08-10T23:33:37.848Z,40.76
2022-08-10T23:36:34.058Z,40.78
2022-08-10T23:39:26.415Z,41.00
2022-08-10T23:41:53.190Z,41.22
2022-08-10T23:44:23.560Z,41.22
2022-08-10T23:46:53.805Z,41.13
2022-08-10T23:49:25.861Z,41.09
2022-08-10T23:51:56.095Z,41.10
2022-08-10T23:54:26.715Z,41.39
2022-08-10T23:57:01.142Z,41.35
2022-08-10T23:59:33.577Z,41.52
